createdAt,value
2022-12-04T00:04:22.455Z,4.05
2022-12-04T00:06:52.731Z,4.15
2022-12-04T00:09:23.291Z,4.10
2022-12-04T00:11:50.538Z,4.32
2022-12-04T00:14:17.646Z,4.78
2022-12-04T00:16:45.391Z,4.10
2022-12-04T00:19:12.377Z,4.57
2022-12-04T00:21:39.351Z,4.22
2022-12-04T00:24:06.869Z,4.50
2022-12-04T00:26:34.658Z,4.50
2022-12-04T00:29:01.943Z,4.57
2022-12-04T00:31:33.743Z,4.10
2022-12-04T00:34:02.228Z,4.35
2022-12-04T00:36:30.315Z,4.40
2022-12-04T00:39:00.669Z,4.68
2022-12-04T00:41:29.902Z,4.65
2022-12-04T00:43:57.090Z,4.07
2022-12-04T00:46:24.450Z,4.00
2022-12-04T00:48:52.653Z,4.28
2022-12-04T00:51:24.034Z,4.53
2022-12-04T00:53:52.391Z,4.43
2022-12-04T00:56:25.070Z,4.70
2022-12-04T00:58:55.273Z,4.57
2022-12-04T01:01:23.916Z,4.38
2022-12-04T01:03:51.717Z,4.35
2022-12-04T01:06:34.357Z,4.13
2022-12-04T01:09:04.516Z,4.60
2022-12-04T01:11:35.217Z,4.35
2022-12-04T01:14:02.638Z,4.28
2022-12-04T01:16:35.479Z,4.10
2022-12-04T01:19:04.481Z,4.38
2022-12-04T01:21:31.472Z,4.43
2022-12-04T01:23:59.899Z,4.50
2022-12-04T01:26:28.327Z,4.70
2022-12-04T01:28:55.409Z,4.20
2022-12-04T01:31:23.237Z,4.35
2022-12-04T01:33:51.343Z,4.78
2022-12-04T01:36:23.801Z,4.20
2022-12-04T01:38:51.534Z,4.75
2022-12-04T01:41:23.791Z,4.35
2022-12-04T01:44:22.694Z,4.50
2022-12-04T01:46:58.431Z,4.47
2022-12-04T01:49:38.282Z,4.38
2022-12-04T01:52:19.141Z,4.53
2022-12-04T01:54:51.876Z,4.70
2022-12-04T01:57:27.123Z,4.35
2022-12-04T02:00:01.619Z,4.43
2022-12-04T02:02:37.030Z,3.85
2022-12-04T02:05:08.735Z,4.50
2022-12-04T02:07:38.337Z,4.35
2022-12-04T02:10:08.938Z,4.55
2022-12-04T02:12:54.548Z,4.32
2022-12-04T02:15:30.143Z,4.30
2022-12-04T02:18:09.777Z,4.30
2022-12-04T02:21:04.334Z,4.60
2022-12-04T02:23:46.078Z,4.32
2022-12-04T02:26:38.833Z,4.45
2022-12-04T02:29:35.961Z,4.68
2022-12-04T02:32:20.034Z,4.00
2022-12-04T02:35:21.421Z,4.50
2022-12-04T02:38:03.508Z,4.50
2022-12-04T02:41:03.755Z,4.40
2022-12-04T02:43:42.460Z,4.05
2022-12-04T02:46:20.583Z,4.40
2022-12-04T02:48:53.100Z,4.03
2022-12-04T02:51:24.690Z,4.32
2022-12-04T02:53:59.650Z,4.32
2022-12-04T02:56:34.733Z,4.45
2022-12-04T02:59:22.967Z,4.53
2022-12-04T03:01:56.550Z,4.75
2022-12-04T03:04:35.866Z,4.13
2022-12-04T03:07:27.499Z,4.63
2022-12-04T03:10:11.255Z,4.25
2022-12-04T03:13:06.278Z,4.05
2022-12-04T03:15:57.019Z,4.13
2022-12-04T03:18:59.021Z,4.18
2022-12-04T03:21:35.384Z,4.55
2022-12-04T03:24:13.288Z,4.20
2022-12-04T03:27:13.954Z,3.97
2022-12-04T03:29:55.467Z,4.20
2022-12-04T03:32:34.797Z,4.75
2022-12-04T03:35:33.263Z,4.53
2022-12-04T03:38:52.522Z,4.70
2022-12-04T03:41:57.436Z,3.88
2022-12-04T03:44:39.557Z,4.20
2022-12-04T03:47:38.845Z,4.63
2022-12-04T03:50:19.345Z,3.95
2022-12-04T03:53:08.343Z,4.60
2022-12-04T03:55:47.455Z,3.97
2022-12-04T03:58:22.179Z,4.20
2022-12-04T04:00:54.208Z,4.20
2022-12-04T04:03:31.668Z,4.15
2022-12-04T04:06:26.665Z,4.00
2022-12-04T04:09:01.069Z,4.68
2022-12-04T04:11:54.339Z,3.90
2022-12-04T04:15:13.948Z,3.95
2022-12-04T04:18:05.211Z,4.25
2022-12-04T04:21:17.185Z,4.28
2022-12-04T04:24:07.804Z,4.00
2022-12-04T04:26:44.452Z,4.20
2022-12-04T04:29:12.726Z,4.35
2022-12-04T04:32:10.452Z,4.10
2022-12-04T04:35:20.866Z,4.28
2022-12-04T04:38:00.651Z,4.10
2022-12-04T04:41:19.574Z,4.00
2022-12-04T04:44:29.002Z,4.13
2022-12-04T04:47:06.278Z,4.07
2022-12-04T04:49:36.358Z,3.80
2022-12-04T04:52:04.055Z,4.20
2022-12-04T04:54:34.109Z,4.07
2022-12-04T04:57:01.117Z,4.28
2022-12-04T04:59:29.145Z,4.35
2022-12-04T05:01:58.131Z,4.07
2022-12-04T05:04:25.083Z,4.30
2022-12-04T05:06:51.978Z,3.90
2022-12-04T05:09:18.873Z,4.35
2022-12-04T05:11:45.805Z,3.92
2022-12-04T05:14:12.755Z,3.72
2022-12-04T05:16:40.947Z,4.30
2022-12-04T05:19:26.163Z,4.10
2022-12-04T05:21:53.048Z,3.70
2022-12-04T05:24:20.005Z,4.22
2022-12-04T05:26:46.842Z,3.95
2022-12-04T05:29:13.637Z,3.83
2022-12-04T05:31:40.620Z,3.92
2022-12-04T05:34:07.619Z,3.58
2022-12-04T05:36:34.564Z,4.10
2022-12-04T05:39:04.297Z,3.90
2022-12-04T05:41:36.209Z,3.78
2022-12-04T05:44:03.109Z,3.72
2022-12-04T05:46:30.006Z,3.92
2022-12-04T05:48:58.295Z,3.47
2022-12-04T05:51:25.174Z,4.00
2022-12-04T05:53:54.220Z,4.10
2022-12-04T05:56:22.036Z,4.13
2022-12-04T05:58:49.124Z,3.53
2022-12-04T06:01:23.525Z,3.88
2022-12-04T06:03:50.768Z,3.72
2022-12-04T06:06:22.872Z,3.55
2022-12-04T06:08:56.511Z,3.60
2022-12-04T06:11:35.475Z,3.63
2022-12-04T06:14:06.679Z,3.47
2022-12-04T06:16:41.249Z,3.80
2022-12-04T06:19:18.551Z,3.45
2022-12-04T06:21:50.830Z,3.63
2022-12-04T06:24:24.307Z,3.90
2022-12-04T06:29:48.918Z,3.35
2022-12-04T06:32:21.179Z,3.88
2022-12-04T06:34:52.954Z,3.67
2022-12-04T06:37:21.871Z,4.03
2022-12-04T06:39:48.952Z,3.83
2022-12-04T06:42:16.339Z,3.60
2022-12-04T06:44:43.270Z,3.55
2022-12-04T06:47:10.270Z,3.42
2022-12-04T06:49:37.336Z,3.72
2022-12-04T06:52:07.156Z,3.50
2022-12-04T06:54:34.022Z,3.80
2022-12-04T06:57:00.917Z,3.40
2022-12-04T06:59:28.005Z,3.50
2022-12-04T07:01:57.626Z,3.53
2022-12-04T07:04:24.776Z,3.40
2022-12-04T07:06:51.819Z,3.42
2022-12-04T07:09:18.957Z,3.47
2022-12-04T07:11:46.428Z,3.22
2022-12-04T07:14:14.031Z,3.63
2022-12-04T07:16:42.795Z,3.10
2022-12-04T07:19:12.795Z,2.83
2022-12-04T07:21:40.306Z,2.97
2022-12-04T07:24:07.505Z,3.13
2022-12-04T07:26:34.546Z,3.55
2022-12-04T07:29:01.467Z,2.83
2022-12-04T07:31:29.752Z,3.35
2022-12-04T07:33:58.028Z,3.20
2022-12-04T07:36:28.135Z,3.60
2022-12-04T07:38:56.662Z,3.30
2022-12-04T07:41:23.971Z,3.20
2022-12-04T07:43:50.974Z,2.75
2022-12-04T07:46:27.655Z,3.10
2022-12-04T07:48:59.360Z,3.08
2022-12-04T07:51:29.527Z,3.28
2022-12-04T07:54:03.199Z,3.15
2022-12-04T07:56:33.589Z,3.15
2022-12-04T07:59:03.216Z,2.67
2022-12-04T08:01:30.878Z,3.22
2022-12-04T08:04:00.468Z,3.22
2022-12-04T08:06:29.969Z,3.30
2022-12-04T08:08:57.411Z,2.92
2022-12-04T08:11:27.326Z,3.55
2022-12-04T08:14:02.862Z,2.92
2022-12-04T08:16:33.055Z,2.90
2022-12-04T08:19:01.109Z,2.83
2022-12-04T08:21:31.368Z,3.05
2022-12-04T08:24:00.268Z,2.92
2022-12-04T08:26:30.124Z,2.80
2022-12-04T08:29:00.163Z,2.85
2022-12-04T08:31:30.689Z,2.97
2022-12-04T08:34:00.286Z,2.97
2022-12-04T08:36:27.968Z,3.22
2022-12-04T08:38:55.746Z,2.90
2022-12-04T08:41:26.090Z,2.83
2022-12-04T08:43:55.267Z,2.80
2022-12-04T08:46:27.255Z,2.85
2022-12-04T08:48:55.437Z,2.72
2022-12-04T08:51:30.606Z,2.90
2022-12-04T08:54:01.965Z,2.95
2022-12-04T08:56:36.148Z,3.15
2022-12-04T08:59:03.383Z,3.15
2022-12-04T09:01:31.007Z,3.20
2022-12-04T09:03:59.079Z,3.05
2022-12-04T09:06:26.461Z,2.70
2022-12-04T09:08:56.076Z,2.65
2022-12-04T09:11:26.954Z,2.72
2022-12-04T09:13:54.137Z,2.92
2022-12-04T09:16:24.679Z,2.97
2022-12-04T09:18:52.420Z,2.80
2022-12-04T09:21:21.344Z,2.50
2022-12-04T09:23:48.463Z,2.95
2022-12-04T09:26:27.024Z,2.92
2022-12-04T09:28:55.768Z,2.60
2022-12-04T09:31:26.971Z,2.70
2022-12-04T09:33:54.537Z,2.78
2022-12-04T09:36:22.013Z,2.90
2022-12-04T09:38:53.060Z,2.70
2022-12-04T09:41:56.178Z,2.40
2022-12-04T09:44:46.285Z,2.92
2022-12-04T09:47:31.526Z,2.72
2022-12-04T09:50:26.543Z,2.65
2022-12-04T09:53:09.255Z,2.47
2022-12-04T09:55:56.352Z,2.38
2022-12-04T09:58:40.542Z,2.72
2022-12-04T10:01:21.045Z,2.67
2022-12-04T10:04:02.684Z,2.58
2022-12-04T10:06:47.697Z,2.63
2022-12-04T10:09:25.887Z,2.65
2022-12-04T10:12:36.583Z,2.65
2022-12-04T10:15:12.401Z,2.05
2022-12-04T10:17:56.151Z,2.65
2022-12-04T10:20:50.414Z,3.08
2022-12-04T10:24:06.720Z,2.47
2022-12-04T10:26:43.634Z,2.72
2022-12-04T10:29:27.978Z,3.30
2022-12-04T10:31:59.545Z,3.00
2022-12-04T10:34:31.144Z,2.45
2022-12-04T10:37:11.526Z,2.60
2022-12-04T10:40:02.618Z,3.05
2022-12-04T10:42:45.079Z,2.80
2022-12-04T10:45:18.260Z,2.55
2022-12-04T10:47:50.879Z,2.40
2022-12-04T10:50:21.871Z,3.58
2022-12-04T10:52:49.671Z,6.18
2022-12-04T10:55:30.030Z,7.40
2022-12-04T10:58:00.580Z,6.50
2022-12-04T11:00:33.909Z,5.95
2022-12-04T11:03:21.961Z,6.18
2022-12-04T11:06:14.674Z,5.20
2022-12-04T11:08:48.926Z,4.45
2022-12-04T11:11:28.005Z,4.57
2022-12-04T11:14:15.823Z,4.65
2022-12-04T11:16:49.778Z,4.38
2022-12-04T11:19:31.420Z,4.13
2022-12-04T11:22:19.471Z,4.47
2022-12-04T11:24:58.194Z,4.38
2022-12-04T11:27:36.631Z,4.07
2022-12-04T11:30:13.747Z,4.05
2022-12-04T11:32:42.200Z,4.28
2022-12-04T11:35:22.235Z,4.18
2022-12-04T11:38:09.698Z,4.40
2022-12-04T11:40:37.594Z,3.75
2022-12-04T11:43:12.399Z,3.28
2022-12-04T11:45:43.909Z,3.75
2022-12-04T11:48:18.438Z,3.72
2022-12-04T11:50:58.988Z,3.60
2022-12-04T11:53:55.793Z,3.95
2022-12-04T11:56:36.241Z,3.38
2022-12-04T11:59:46.517Z,3.70
2022-12-04T12:02:42.042Z,3.60
2022-12-04T12:05:43.346Z,3.75
2022-12-04T12:08:19.111Z,4.60
2022-12-04T12:11:11.118Z,3.97
2022-12-04T12:14:02.669Z,3.80
2022-12-04T12:20:08.474Z,3.50
2022-12-04T12:23:18.884Z,3.63
2022-12-04T12:26:15.370Z,3.38
2022-12-04T12:29:20.972Z,3.55
2022-12-04T12:32:36.715Z,3.38
2022-12-04T12:35:22.370Z,3.40
2022-12-04T12:37:54.760Z,3.30
2022-12-04T12:40:40.574Z,4.07
2022-12-04T12:43:31.291Z,3.90
2022-12-04T12:46:17.403Z,3.72
2022-12-04T12:49:26.488Z,4.22
2022-12-04T12:52:24.019Z,4.63
2022-12-04T12:55:07.408Z,5.75
2022-12-04T12:57:42.309Z,5.35
2022-12-04T13:00:21.789Z,5.90
2022-12-04T13:03:04.112Z,5.90
2022-12-04T13:05:43.331Z,5.68
2022-12-04T13:08:34.035Z,6.13
2022-12-04T13:11:22.586Z,6.30
2022-12-04T13:13:56.172Z,6.18
2022-12-04T13:16:56.727Z,6.22
2022-12-04T13:19:43.316Z,5.40
2022-12-04T13:22:59.510Z,8.10
2022-12-04T13:25:49.370Z,6.43
2022-12-04T13:28:50.090Z,6.85
2022-12-04T13:31:43.704Z,5.55
2022-12-04T13:34:35.715Z,6.10
2022-12-04T13:37:34.971Z,4.90
2022-12-04T13:40:42.742Z,4.55
2022-12-04T13:43:44.535Z,5.10
2022-12-04T13:46:35.465Z,5.45
2022-12-04T13:49:36.202Z,4.50
2022-12-04T13:52:24.993Z,5.10
2022-12-04T13:55:00.373Z,4.40
2022-12-04T13:57:28.506Z,5.15
2022-12-04T14:00:23.921Z,5.60
2022-12-04T14:02:58.144Z,4.82
2022-12-04T14:05:43.195Z,5.05
2022-12-04T14:08:19.187Z,4.47
2022-12-04T14:11:19.799Z,4.20
2022-12-04T14:14:08.340Z,4.72
2022-12-04T14:16:49.198Z,5.13
2022-12-04T14:19:36.121Z,4.68
2022-12-04T14:22:04.165Z,5.40
2022-12-04T14:24:35.343Z,4.65
2022-12-04T14:27:32.757Z,4.53
2022-12-04T14:30:01.876Z,4.72
2022-12-04T14:32:35.238Z,3.88
2022-12-04T14:35:03.627Z,4.45
2022-12-04T14:37:40.794Z,4.10
2022-12-04T14:40:23.645Z,4.75
2022-12-04T14:42:51.466Z,4.07
2022-12-04T14:46:03.747Z,4.07
2022-12-04T14:49:15.560Z,3.85
2022-12-04T14:52:39.173Z,4.00
2022-12-04T14:55:47.015Z,4.15
2022-12-04T14:58:30.182Z,3.40
2022-12-04T15:01:18.486Z,4.10
2022-12-04T15:03:49.692Z,3.92
2022-12-04T15:06:26.029Z,4.20
2022-12-04T15:09:17.992Z,3.55
2022-12-04T15:12:14.630Z,4.20
2022-12-04T15:14:50.049Z,3.58
2022-12-04T15:17:18.831Z,3.83
2022-12-04T15:19:46.092Z,3.95
2022-12-04T15:22:27.155Z,3.85
2022-12-04T15:24:55.579Z,3.38
2022-12-04T15:27:32.669Z,3.67
2022-12-04T15:30:07.412Z,4.53
2022-12-04T15:32:36.877Z,3.65
2022-12-04T15:35:18.334Z,3.90
2022-12-04T15:37:45.613Z,3.80
2022-12-04T15:40:22.640Z,3.90
2022-12-04T15:42:51.590Z,3.78
2022-12-04T15:45:18.452Z,3.60
2022-12-04T15:47:45.948Z,3.10
2022-12-04T15:50:16.129Z,3.30
2022-12-04T15:53:21.663Z,3.58
2022-12-04T15:55:56.180Z,3.47
2022-12-04T15:58:27.847Z,3.35
2022-12-04T16:01:01.924Z,3.35
2022-12-04T16:03:55.509Z,3.63
2022-12-04T16:06:31.720Z,3.80
2022-12-04T16:09:17.860Z,3.40
2022-12-04T16:11:45.123Z,3.60
2022-12-04T16:14:12.004Z,3.53
2022-12-04T16:16:43.817Z,3.65
2022-12-04T16:19:35.693Z,3.50
2022-12-04T16:22:20.405Z,3.22
2022-12-04T16:24:47.936Z,3.60
2022-12-04T16:27:20.271Z,3.38
2022-12-04T16:29:47.640Z,3.47
2022-12-04T16:32:23.544Z,3.53
2022-12-04T16:34:50.547Z,3.70
2022-12-04T16:37:21.178Z,3.53
2022-12-04T16:39:49.174Z,3.65
2022-12-04T16:42:24.575Z,3.53
2022-12-04T16:44:52.618Z,3.67
2022-12-04T16:47:20.872Z,3.58
2022-12-04T16:49:51.325Z,3.67
2022-12-04T16:52:19.755Z,3.50
2022-12-04T16:54:47.802Z,3.22
2022-12-04T16:57:15.147Z,3.67
2022-12-04T16:59:42.780Z,3.53
2022-12-04T17:02:20.338Z,3.70
2022-12-04T17:04:49.497Z,3.58
2022-12-04T17:07:20.524Z,3.40
2022-12-04T17:09:50.321Z,3.90
2022-12-04T17:12:17.438Z,3.53
2022-12-04T17:14:44.428Z,3.50
2022-12-04T17:17:11.539Z,3.80
2022-12-04T17:19:38.616Z,3.88
2022-12-04T17:22:08.585Z,3.90
2022-12-04T17:24:37.836Z,3.38
2022-12-04T17:27:08.023Z,3.45
2022-12-04T17:29:35.041Z,3.75
2022-12-04T17:32:02.159Z,3.78
2022-12-04T17:34:32.368Z,4.03
2022-12-04T17:36:59.728Z,3.92
2022-12-04T17:39:26.890Z,3.72
2022-12-04T17:41:53.948Z,3.88
2022-12-04T17:44:21.178Z,4.20
2022-12-04T17:46:48.581Z,4.30
2022-12-04T17:49:15.591Z,4.15
2022-12-04T17:51:42.818Z,3.97
2022-12-04T17:54:12.279Z,3.95
2022-12-04T17:56:43.306Z,4.03
2022-12-04T17:59:13.275Z,3.90
2022-12-04T18:01:40.428Z,4.32
2022-12-04T18:04:09.239Z,4.03
2022-12-04T18:06:43.315Z,3.67
2022-12-04T18:09:15.744Z,3.95
2022-12-04T18:11:46.712Z,3.90
2022-12-04T18:14:17.668Z,4.00
2022-12-04T18:16:48.334Z,3.97
2022-12-04T18:19:15.787Z,3.83
2022-12-04T18:21:43.189Z,4.18
2022-12-04T18:24:10.940Z,4.32
2022-12-04T18:26:43.564Z,4.22
2022-12-04T18:29:17.696Z,3.80
2022-12-04T18:31:45.994Z,3.85
2022-12-04T18:34:13.767Z,4.20
2022-12-04T18:36:42.243Z,3.95
2022-12-04T18:39:22.131Z,4.10
2022-12-04T18:41:49.449Z,4.75
2022-12-04T18:44:17.624Z,4.20
2022-12-04T18:46:44.772Z,4.47
2022-12-04T18:49:12.481Z,4.20
2022-12-04T18:51:49.180Z,3.97
2022-12-04T18:54:22.153Z,3.92
2022-12-04T18:56:53.037Z,4.68
2022-12-04T18:59:26.802Z,4.50
2022-12-04T19:01:55.425Z,4.32
2022-12-04T19:04:25.597Z,4.32
2022-12-04T19:06:56.088Z,4.13
2022-12-04T19:09:54.356Z,4.53
2022-12-04T19:12:15.536Z,4.20
2022-12-04T19:14:42.752Z,4.07
2022-12-04T19:17:10.543Z,4.25
2022-12-04T19:19:40.058Z,4.32
2022-12-04T19:22:07.237Z,4.35
2022-12-04T19:24:34.237Z,4.25
2022-12-04T19:27:02.002Z,4.45
2022-12-04T19:29:29.046Z,4.30
2022-12-04T19:31:59.318Z,4.13
2022-12-04T19:34:26.922Z,4.45
2022-12-04T19:36:57.290Z,4.60
2022-12-04T19:39:24.423Z,4.43
2022-12-04T19:41:52.911Z,5.07
2022-12-04T19:44:47.754Z,4.43
2022-12-04T19:47:10.573Z,4.68
2022-12-04T19:49:37.666Z,4.70
2022-12-04T19:52:05.566Z,5.00
2022-12-04T19:54:32.700Z,4.80
2022-12-04T19:56:59.728Z,4.38
2022-12-04T19:59:30.460Z,4.25
2022-12-04T20:02:00.302Z,4.93
2022-12-04T20:04:27.313Z,4.82
2022-12-04T20:06:54.494Z,4.18
2022-12-04T20:09:22.765Z,4.53
2022-12-04T20:11:50.237Z,5.10
2022-12-04T20:14:17.998Z,4.82
2022-12-04T20:16:48.055Z,5.00
2022-12-04T20:19:20.533Z,4.78
2022-12-04T20:21:47.939Z,4.95
2022-12-04T20:24:17.419Z,5.07
2022-12-04T20:26:46.772Z,4.55
2022-12-04T20:29:19.202Z,5.03
2022-12-04T20:31:47.413Z,5.15
2022-12-04T20:34:18.275Z,4.72
2022-12-04T20:36:47.627Z,4.85
2022-12-04T20:39:16.841Z,5.10
2022-12-04T20:41:44.039Z,5.18
2022-12-04T20:44:16.551Z,4.82
2022-12-04T20:46:44.676Z,5.25
2022-12-04T20:49:21.242Z,4.90
2022-12-04T20:51:51.098Z,4.93
2022-12-04T20:54:22.189Z,5.32
2022-12-04T20:56:50.419Z,5.35
2022-12-04T20:59:19.866Z,5.38
2022-12-04T21:01:49.377Z,5.68
2022-12-04T21:04:18.249Z,5.57
2022-12-04T21:06:46.896Z,5.40
2022-12-04T21:09:27.929Z,5.45
2022-12-04T21:11:55.836Z,5.38
2022-12-04T21:14:52.981Z,5.32
2022-12-04T21:17:20.268Z,5.38
2022-12-04T21:19:50.043Z,5.45
2022-12-04T21:22:19.045Z,5.50
2022-12-04T21:24:46.121Z,4.85
2022-12-04T21:27:18.878Z,5.28
2022-12-04T21:29:48.842Z,5.57
2022-12-04T21:32:19.493Z,5.53
2022-12-04T21:34:46.515Z,5.03
2022-12-04T21:37:13.806Z,5.20
2022-12-04T21:39:42.338Z,5.70
2022-12-04T21:42:28.161Z,5.30
2022-12-04T21:44:55.203Z,5.40
2022-12-04T21:47:22.802Z,5.50
2022-12-04T21:49:49.893Z,5.57
2022-12-04T21:52:18.836Z,5.22
2022-12-04T21:54:51.588Z,5.47
2022-12-04T21:57:19.970Z,5.65
2022-12-04T21:59:47.465Z,5.95
2022-12-04T22:02:15.832Z,5.35
2022-12-04T22:04:47.323Z,5.10
2022-12-04T22:07:14.568Z,5.28
2022-12-04T22:09:41.705Z,5.57
2022-12-04T22:14:56.073Z,5.20
2022-12-04T22:17:23.086Z,4.93
2022-12-04T22:19:52.876Z,5.55
2022-12-04T22:22:19.804Z,5.97
2022-12-04T22:24:47.995Z,5.28
2022-12-04T22:27:16.895Z,5.40
2022-12-04T22:29:51.492Z,5.47
2022-12-04T22:32:20.157Z,5.10
2022-12-04T22:34:50.257Z,5.18
2022-12-04T22:37:17.663Z,5.40
2022-12-04T22:39:50.688Z,5.20
2022-12-04T22:42:17.732Z,5.55
2022-12-04T22:44:44.824Z,5.63
2022-12-04T22:47:11.831Z,5.45
2022-12-04T22:49:39.315Z,5.90
2022-12-04T22:52:06.423Z,5.05
2022-12-04T22:54:33.548Z,5.80
2022-12-04T22:57:00.491Z,5.38
2022-12-04T22:59:29.558Z,5.18
2022-12-04T23:01:56.578Z,5.18
2022-12-04T23:04:23.549Z,5.68
2022-12-04T23:06:50.527Z,5.32
2022-12-04T23:09:18.480Z,5.35
2022-12-04T23:11:46.000Z,5.82
2022-12-04T23:14:15.457Z,5.68
2022-12-04T23:16:43.277Z,5.75
2022-12-04T23:19:14.972Z,5.25
2022-12-04T23:21:43.114Z,5.25
2022-12-04T23:24:11.825Z,5.50
2022-12-04T23:26:43.462Z,5.43
2022-12-04T23:29:29.551Z,5.35
2022-12-04T23:31:57.910Z,5.30
2022-12-04T23:34:24.887Z,5.25
2022-12-04T23:36:52.467Z,5.60
2022-12-04T23:39:19.387Z,5.43
2022-12-04T23:41:46.636Z,5.75
2022-12-04T23:44:13.612Z,5.18
2022-12-04T23:46:40.747Z,5.43
2022-12-04T23:49:11.071Z,5.53
2022-12-04T23:51:38.114Z,5.05
2022-12-04T23:54:05.158Z,5.47
2022-12-04T23:56:32.734Z,5.72
2022-12-04T23:58:59.850Z,5.43
